Flight Track Log - Related Links

Times and Time Zones

All times are in EDT time to prevent confusion due to time zone crossing. See the N9706B flight status page for this flight to view local times or setup timezone preferences in your user account.

Time Position Orientation Groundspeed Altitude Reporting Facility
EDT Latitude Longitude Course Direction KTS MPH feet Rate Location/Type
Sat 09:55:24 AM 38.3667 -79.1483 307° West 120 138 5,800  Level Washington Center
Sat 09:56:24 AM 38.3869 -79.1703 320° Northwest 86 99 6,000 149 Climbing Washington Center
Sat 09:57:25 AM 38.4047 -79.2003 307° West 97 112 6,100 151 Climbing Washington Center
Sat 09:58:23 AM 38.4225 -79.2358 303° West 108 124 6,300 303 Climbing Washington Center
Sat 09:59:24 AM 38.4383 -79.2631 307° West 108 124 6,700 295 Climbing Washington Center
Sat 10:00:00 AM 38.3457 -79.0984 307° West  Level FlightAware Approximate
Sat 10:00:25 AM 38.4478 -79.2900 294° West 103 119 6,900  Level Washington Center
Sat 10:01:23 AM 38.4575 -79.3197 293° West 97 112 7,000 50 Climbing Washington Center
Sat 10:02:24 AM 38.4728 -79.3603 296° West 103 119 7,000  Level Washington Center
Sat 10:03:24 AM 38.4881 -79.4033 294° West 120 138 7,000  Level Washington Center
Sat 10:04:24 AM 38.5056 -79.4442 299° West 125 144 7,000  Level Washington Center
Sat 10:05:25 AM 38.5211 -79.4819 298° West 130 150 7,000 -50 Level Washington Center
Sat 10:06:23 AM 38.5322 -79.5225 289° West 130 150 6,900  Descending Washington Center
Sat 10:07:24 AM 38.5481 -79.5525 304° West 118 136 7,000 49 Climbing Washington Center
Sat 10:08:25 AM 38.5678 -79.5828 310° West 113 130 7,000  Level Washington Center
Sat 10:09:23 AM 38.5789 -79.6233 289° West 113 130 7,000  Level Washington Center
Sat 10:11:38 AM 38.6103 -79.6961 299° West 113 130 7,000  Level Indianapolis Center
Sat 10:12:40 AM 38.6231 -79.7344 293° West 116 133 7,000 49 Level Indianapolis Center
Sat 10:13:41 AM 38.6358 -79.7703 295° West 111 128 7,100 49 Climbing Indianapolis Center
Sat 10:14:43 AM 38.6486 -79.8061 295° West 110 127 7,100  Level Indianapolis Center
Sat 10:15:44 AM 38.6614 -79.8428 294° West 112 129 7,100  Level Indianapolis Center
Sat 10:16:46 AM 38.6778 -79.8772 301° West 113 130 7,100 -49 Level Indianapolis Center
Sat 10:17:47 AM 38.6953 -79.9108 304° West 114 131 7,000  Descending Indianapolis Center
Sat 10:18:49 AM 38.6997 -79.9517 278° West 101 116 7,100 49 Climbing Indianapolis Center
Sat 10:19:50 AM 38.7117 -79.9833 296° West 98 113 7,100  Level Indianapolis Center
Sat 10:20:52 AM 38.7283 -80.0153 304° West 105 121 7,100  Level Indianapolis Center
Sat 10:21:53 AM 38.7461 -80.0478 305° West 111 128 7,100  Level Indianapolis Center
Sat 10:22:55 AM 38.7625 -80.0836 300° West 114 131 7,100 -341 Level Indianapolis Center
Sat 10:23:56 AM 38.7767 -80.1206 296° West 115 132 6,400 -488 Descending Indianapolis Center
Sat 10:24:58 AM 38.7950 -80.1608 300° West 126 145 6,100 -145 Descending Indianapolis Center
Sat 10:26:00 AM 38.8081 -80.1989 294° West 121 139 6,100  Level Indianapolis Center
Sat 10:27:01 AM 38.8233 -80.2411 295° West 111 128 6,100  Level Indianapolis Center
Sat 10:28:03 AM 38.8386 -80.2781 298° West 115 132 6,100  Level Indianapolis Center
Sat 10:29:04 AM 38.8528 -80.3144 297° West 116 133 6,100  Level Indianapolis Center
Sat 10:30:06 AM 38.8664 -80.3514 295° West 115 132 6,100  Level Indianapolis Center
Sat 10:31:07 AM 38.8778 -80.3889 291° West 113 130 6,100 49 Level Indianapolis Center
Sat 10:32:09 AM 38.8914 -80.4267 295° West 115 132 6,200  Climbing Indianapolis Center
Sat 10:33:11 AM 38.9053 -80.4622 297° West 114 131 6,100 -49 Descending Indianapolis Center
Sat 10:34:12 AM 38.9136 -80.4989 286° West 109 125 6,100 49 Level Indianapolis Center
Sat 10:35:14 AM 38.9364 -80.5403 305° West 115 132 6,200  Climbing Indianapolis Center
Sat 10:36:16 AM 38.9539 -80.5758 302° West 118 136 6,100 -49 Descending Indianapolis Center
Sat 10:37:17 AM 38.9681 -80.6108 298° West 116 133 6,100  Level Indianapolis Center
Sat 10:38:19 AM 38.9831 -80.6419 302° West 110 127 6,100 48 Level Indianapolis Center
Sat 10:39:21 AM 38.9972 -80.6753 299° West 107 123 6,200 48 Climbing Indianapolis Center
Sat 10:40:23 AM 39.0092 -80.7089 295° West 106 122 6,200 -49 Level Indianapolis Center
Sat 10:41:24 AM 39.0222 -80.7442 295° West 107 123 6,100  Descending Indianapolis Center
Sat 10:42:26 AM 39.0344 -80.7806 293° West 109 125 6,200  Climbing Indianapolis Center
Sat 10:43:28 AM 39.0519 -80.8239 297° West 111 128 6,100 -48 Descending Indianapolis Center
Sat 10:44:30 AM 39.0667 -80.8606 297° West 113 130 6,100  Level Indianapolis Center
Sat 10:45:31 AM 39.0806 -80.8978 296° West 114 131 6,100  Level Indianapolis Center
Sat 10:46:33 AM 39.0989 -80.9325 304° West 115 132 6,100 48 Level Indianapolis Center
Sat 10:47:35 AM 39.1111 -80.9700 293° West 115 132 6,200  Climbing Indianapolis Center
Sat 10:48:37 AM 39.1194 -81.0086 286° West 114 131 6,100 -48 Descending Indianapolis Center
Sat 10:49:39 AM 39.1275 -81.0458 286° West 112 129 6,100  Level Indianapolis Center
Sat 10:50:40 AM 39.1414 -81.0889 293° West 109 125 6,100 49 Level Indianapolis Center
Sat 10:51:42 AM 39.1578 -81.1236 301° West 110 127 6,200  Climbing Indianapolis Center
Sat 10:52:44 AM 39.1778 -81.1586 306° West 116 133 6,100  Descending Indianapolis Center
Sat 10:53:46 AM 39.1942 -81.1958 300° West 119 137 6,200  Climbing Indianapolis Center
Sat 10:54:47 AM 39.2086 -81.2325 297° West 118 136 6,100 -49 Descending Indianapolis Center
Sat 10:55:49 AM 39.2189 -81.2714 289° West 116 133 6,100  Level Indianapolis Center
Sat 10:56:51 AM 39.2358 -81.3083 301° West 118 136 6,100 97 Level Indianapolis Center
Sat 10:57:53 AM 39.2469 -81.3525 288° West 112 129 6,300 49 Climbing Indianapolis Center
Sat 10:58:54 AM 39.2653 -81.3875 304° West 117 135 6,200 -98 Descending Indianapolis Center
Sat 10:59:56 AM 39.2792 -81.4289 293° West 123 142 6,100 -48 Descending Indianapolis Center
Sat 11:00:58 AM 39.2958 -81.4639 302° West 119 137 6,100 48 Level Indianapolis Center
Sat 11:02:00 AM 39.3086 -81.5000 295° West 115 132 6,200  Climbing Indianapolis Center
Sat 11:03:02 AM 39.3136 -81.5394 279° West 112 129 6,100 -98 Descending Indianapolis Center
Sat 11:04:03 AM 39.3289 -81.5781 297° West 118 136 6,000  Descending Indianapolis Center
Sat 11:05:05 AM 39.3472 -81.6197 300° West 114 131 6,100  Climbing Indianapolis Center
Sat 11:06:07 AM 39.3625 -81.6600 296° West 120 138 6,000 -48 Descending Indianapolis Center
Sat 11:07:09 AM 39.3800 -81.6961 302° West 121 139 6,000 97 Level Indianapolis Center
Sat 11:08:11 AM 39.3953 -81.7339 298° West 119 137 6,200 49 Climbing Indianapolis Center
Sat 11:09:12 AM 39.4056 -81.7706 290° West 110 127 6,100 -49 Descending Indianapolis Center
Sat 11:10:14 AM 39.4175 -81.8114 291° West 119 137 6,100  Level Indianapolis Center
Sat 11:11:16 AM 39.4267 -81.8500 287° West 115 132 6,100  Level Indianapolis Center
Sat 11:12:18 AM 39.4442 -81.8931 298° West 113 130 6,100  Level Indianapolis Center
Sat 11:13:20 AM 39.4581 -81.9308 295° West 114 131 6,100 49 Level Indianapolis Center
Sat 11:14:21 AM 39.4708 -81.9661 295° West 112 129 6,200 49 Climbing Indianapolis Center
Sat 11:15:23 AM 39.4867 -82.0050 298° West 118 136 6,200 -48 Level Indianapolis Center
Sat 11:16:25 AM 39.5025 -82.0408 300° West 116 133 6,100 -48 Descending Indianapolis Center
Sat 11:17:27 AM 39.5214 -82.0775 304° West 120 138 6,100  Level Indianapolis Center
Sat 11:18:13 AM 39.5333 -82.1117 294° West 114 131 6,100  Level Indianapolis Center
Sat 11:19:07 AM 39.5450 -82.1458 294° West 111 128 6,100 -52 Level Indianapolis Center
Sat 11:20:08 AM 39.5606 -82.1833 298° West 118 136 6,000 -52 Descending Indianapolis Center
Sat 11:21:03 AM 39.5722 -82.2175 294° West 118 136 6,000  Level Indianapolis Center
Sat 11:21:34 AM 39.5747 -82.2347 281° West 114 131 6,000  Level Indianapolis Center
Sat 11:22:04 AM 39.5858 -82.2550 305° West 121 139 6,000  Level Indianapolis Center
Sat 11:22:36 AM 39.5931 -82.2711 300° West 119 137 6,000  Level Indianapolis Center
Sat 11:23:38 AM 39.6086 -82.3064 300° West 114 131 6,000  Level Indianapolis Center
Sat 11:24:39 AM 39.6058 -82.3469 265° West 110 127 6,000 49 Level Indianapolis Center
Sat 11:25:41 AM 39.6089 -82.3906 275° West 106 122 6,100  Climbing Indianapolis Center
Sat 11:26:43 AM 39.6125 -82.4286 277° West 106 122 6,000 -48 Descending Indianapolis Center
Sat 11:27:45 AM 39.6167 -82.4672 278° West 108 124 6,000 -195 Level Indianapolis Center
Sat 11:28:46 AM 39.6203 -82.5092 276° West 112 129 5,600 -488 Descending Indianapolis Center
Sat 11:29:48 AM 39.6225 -82.5519 274° West 118 136 5,000 -726 Descending Indianapolis Center
Sat 11:30:50 AM 39.6250 -82.5975 274° West 123 142 4,100 -537 Descending Indianapolis Center
Sat 11:31:51 AM 39.6267 -82.6414 273° West 122 140 3,900 -49 Descending Indianapolis Center
Sat 11:32:53 AM 39.6283 -82.6819 273° West 114 131 4,000 48 Climbing Indianapolis Center
Sat 11:33:55 AM 39.6317 -82.7203 276° West 108 124 4,000  Level Indianapolis Center
Sat 11:34:56 AM 39.6350 -82.7603 276° West 110 127 4,000 49 Level Indianapolis Center
Sat 11:35:58 AM 39.6417 -82.8050 281° West 107 123 4,100 -49 Climbing Indianapolis Center
Sat 11:36:59 AM 39.6431 -82.8442 273° West 106 122 3,900  Descending Indianapolis Center
Sat 11:38:01 AM 39.6469 -82.8825 278° West 108 124 4,100 98 Climbing Indianapolis Center
Sat 11:39:02 AM 39.6519 -82.9189 280° West 103 119 4,100 -49 Level Indianapolis Center
Sat 11:40:04 AM 39.6608 -82.9561 287° West 106 122 4,000 -49 Descending Indianapolis Center
Sat 11:41:05 AM 39.6686 -82.9942 285° West 108 124 4,000  Level Indianapolis Center
Sat 11:42:07 AM 39.6764 -83.0333 284° West 110 127 4,000 49 Level Indianapolis Center
Sat 11:43:08 AM 39.6814 -83.0708 280° West 106 122 4,100 49 Climbing Indianapolis Center
Sat 11:44:10 AM 39.6842 -83.1072 276° West 102 117 4,100 -49 Level Indianapolis Center
Sat 11:45:11 AM 39.6964 -83.1456 293° West 108 124 4,000 -49 Descending Indianapolis Center
Sat 11:46:13 AM 39.7056 -83.1847 287° West 111 128 4,000  Level Indianapolis Center
Sat 11:47:14 AM 39.7172 -83.2225 292° West 111 128 4,000  Level Indianapolis Center
Sat 11:48:16 AM 39.7394 -83.2531 313° West 122 140 4,000 -537 Level Indianapolis Center
Sat 11:49:17 AM 39.7797 -83.2461 North 153 176 2,900 -537 Descending Indianapolis Center
Sat 11:50:19 AM 39.8083 -83.2167 38° Northeast 145 167 2,900 -194 Level Indianapolis Center
Sat 11:50:50 AM 39.8253 -83.1978 41° Northeast 156 180 2,600 -885 Descending Indianapolis Center
Sat 11:51:20 AM 39.8400 -83.1872 29° Northeast 141 162 2,000 -587 Descending Indianapolis Center
Sat 11:52:22 AM 39.8706 -83.1619 32° Northeast 135 155 1,700 -439 Descending Indianapolis Center
Sat 11:53:23 AM 39.8978 -83.1389 33° Northeast 128 147 1,100 -590 Descending Indianapolis Center
Sat 11:55:00 AM 39.9012 -83.1369 62° Northeast  Level Estimated

Login

Don't have an account? Register now (free) for customized features, flight alerts, and more!